createdAt,value
2018-12-04T00:01:58.108Z,9.02
2018-12-04T00:04:26.839Z,9.13
2018-12-04T00:06:55.383Z,9.13
2018-12-04T00:09:24.531Z,9.23
2018-12-04T00:11:53.055Z,9.20
2018-12-04T00:14:21.610Z,9.26
2018-12-04T00:16:50.130Z,9.31
2018-12-04T00:19:19.557Z,9.29
2018-12-04T00:21:48.040Z,9.31
2018-12-04T00:24:16.631Z,9.34
2018-12-04T00:26:45.355Z,9.35
2018-12-04T00:29:13.923Z,9.41
2018-12-04T00:31:42.461Z,9.42
2018-12-04T00:34:10.984Z,9.34
2018-12-04T00:36:39.546Z,9.49
2018-12-04T00:39:08.575Z,9.53
2018-12-04T00:41:37.052Z,9.54
2018-12-04T00:44:05.564Z,9.62
2018-12-04T00:46:34.092Z,9.60
2018-12-04T00:49:02.607Z,9.60
2018-12-04T00:51:31.206Z,9.57
2018-12-04T00:53:59.720Z,9.65
2018-12-04T00:56:28.211Z,9.68
2018-12-04T00:58:56.787Z,9.67
2018-12-04T01:01:25.368Z,9.64
2018-12-04T01:03:53.870Z,9.60
2018-12-04T01:06:22.336Z,9.57
2018-12-04T01:08:51.039Z,9.56
2018-12-04T01:11:19.632Z,9.49
2018-12-04T01:13:48.134Z,9.52
2018-12-04T01:16:16.684Z,9.50
2018-12-04T01:18:45.399Z,9.48
2018-12-04T01:21:13.999Z,9.49
2018-12-04T01:23:43.191Z,9.51
2018-12-04T01:26:12.237Z,9.50
2018-12-04T01:28:40.809Z,9.49
2018-12-04T01:31:09.425Z,9.47
2018-12-04T01:33:37.995Z,9.43
2018-12-04T01:36:06.559Z,9.41
2018-12-04T01:38:35.154Z,9.36
2018-12-04T01:41:03.731Z,9.41
2018-12-04T01:43:32.299Z,9.43
2018-12-04T01:46:00.837Z,9.46
2018-12-04T01:48:29.439Z,9.51
2018-12-04T01:50:59.106Z,9.47
2018-12-04T01:53:28.395Z,9.41
2018-12-04T01:55:56.913Z,9.46
2018-12-04T01:58:25.435Z,9.42
2018-12-04T02:00:53.928Z,9.43
2018-12-04T02:03:22.498Z,9.36
2018-12-04T02:05:51.929Z,9.28
2018-12-04T02:08:20.453Z,9.24
2018-12-04T02:10:49.158Z,9.21
2018-12-04T02:13:17.703Z,9.20
2018-12-04T02:15:46.311Z,9.15
2018-12-04T02:18:14.907Z,9.13
2018-12-04T02:20:44.181Z,9.16
2018-12-04T02:23:12.772Z,9.10
2018-12-04T02:25:41.265Z,9.12
2018-12-04T02:28:09.842Z,9.16
2018-12-04T02:30:38.365Z,9.11
2018-12-04T02:33:06.928Z,9.11
2018-12-04T02:35:35.542Z,9.07
2018-12-04T02:38:04.031Z,9.05
2018-12-04T02:40:32.553Z,9.04
2018-12-04T02:43:01.603Z,9.05
2018-12-04T02:45:30.867Z,9.04
2018-12-04T02:47:59.368Z,9.06
2018-12-04T02:50:28.449Z,9.08
2018-12-04T02:52:56.975Z,9.04
2018-12-04T02:55:25.666Z,9.05
2018-12-04T02:57:54.335Z,9.05
2018-12-04T03:00:22.957Z,9.07
2018-12-04T03:02:51.527Z,9.08
2018-12-04T03:05:20.154Z,9.14
2018-12-04T03:07:48.962Z,9.08
2018-12-04T03:10:17.500Z,9.06
2018-12-04T03:12:46.063Z,9.11
2018-12-04T03:15:14.691Z,9.13
2018-12-04T03:17:43.180Z,9.18
2018-12-04T03:20:11.714Z,9.18
2018-12-04T03:22:40.220Z,9.16
2018-12-04T03:25:08.908Z,9.24
2018-12-04T03:27:37.978Z,9.29
2018-12-04T03:30:07.174Z,9.37
2018-12-04T03:32:35.697Z,9.36
2018-12-04T03:35:05.056Z,9.37
2018-12-04T03:37:34.289Z,9.39
2018-12-04T03:40:05.292Z,9.47
2018-12-04T03:42:33.832Z,9.45
2018-12-04T03:45:02.486Z,9.46
2018-12-04T03:47:31.127Z,9.51
2018-12-04T03:49:59.709Z,9.45
2018-12-04T03:52:28.203Z,9.53
2018-12-04T03:54:56.709Z,9.52
2018-12-04T03:57:25.443Z,9.53
2018-12-04T03:59:53.980Z,9.45
2018-12-04T04:02:22.764Z,9.54
2018-12-04T04:04:51.380Z,9.50
2018-12-04T04:07:19.947Z,9.50
2018-12-04T04:09:48.632Z,9.53
2018-12-04T04:12:17.574Z,9.51
2018-12-04T04:14:46.878Z,9.51
2018-12-04T04:17:15.427Z,9.52
2018-12-04T04:19:43.948Z,9.51
2018-12-04T04:22:12.483Z,9.50
2018-12-04T04:24:41.171Z,9.54
2018-12-04T04:27:09.785Z,9.58
2018-12-04T04:29:38.372Z,9.52
2018-12-04T04:32:07.011Z,9.62
2018-12-04T04:34:36.438Z,9.64
2018-12-04T04:37:05.092Z,9.58
2018-12-04T04:39:33.776Z,9.57
2018-12-04T04:42:02.290Z,9.61
2018-12-04T04:44:30.802Z,9.56
2018-12-04T04:46:59.329Z,9.60
2018-12-04T04:49:27.871Z,9.64
2018-12-04T04:51:56.484Z,9.66
2018-12-04T04:54:25.471Z,9.65
2018-12-04T04:56:54.654Z,9.67
2018-12-04T04:59:23.281Z,9.65
2018-12-04T05:01:53.533Z,9.65
2018-12-04T05:04:22.094Z,9.59
2018-12-04T05:06:50.592Z,9.66
2018-12-04T05:09:19.746Z,9.64
2018-12-04T05:11:48.806Z,9.68
2018-12-04T05:14:17.318Z,9.66
2018-12-04T05:16:45.931Z,9.67
2018-12-04T05:19:14.459Z,9.67
2018-12-04T05:21:43.623Z,9.63
2018-12-04T05:24:12.300Z,9.68
2018-12-04T05:26:40.836Z,9.65
2018-12-04T05:29:09.411Z,9.68
2018-12-04T05:31:38.100Z,9.69
2018-12-04T05:34:06.658Z,9.65
2018-12-04T05:36:35.151Z,9.66
2018-12-04T05:39:04.678Z,9.68
2018-12-04T05:41:33.329Z,9.67
2018-12-04T05:44:01.857Z,9.65
2018-12-04T05:46:30.343Z,9.70
2018-12-04T05:48:58.974Z,9.71
2018-12-04T05:51:27.549Z,9.71
2018-12-04T05:53:56.788Z,9.66
2018-12-04T05:56:25.319Z,9.71
2018-12-04T05:58:53.871Z,9.65
2018-12-04T06:01:22.683Z,9.65
2018-12-04T06:03:51.219Z,9.63
2018-12-04T06:06:19.743Z,9.64
2018-12-04T06:08:48.283Z,9.61
2018-12-04T06:11:16.847Z,9.67
2018-12-04T06:13:45.467Z,9.61
2018-12-04T06:16:14.018Z,9.62
2018-12-04T06:18:42.626Z,9.58
2018-12-04T06:21:11.755Z,9.57
2018-12-04T06:23:40.285Z,9.52
2018-12-04T06:26:09.406Z,9.43
2018-12-04T06:28:38.783Z,9.37
2018-12-04T06:31:07.251Z,9.39
2018-12-04T06:33:35.778Z,9.39
2018-12-04T06:36:04.329Z,9.39
2018-12-04T06:38:32.862Z,9.40
2018-12-04T06:41:01.451Z,9.42
2018-12-04T06:43:30.096Z,9.37
2018-12-04T06:45:59.145Z,9.34
2018-12-04T06:48:27.856Z,9.37
2018-12-04T06:50:56.662Z,9.41
2018-12-04T06:53:25.281Z,9.45
2018-12-04T06:55:54.709Z,9.45
2018-12-04T06:58:23.733Z,9.48
2018-12-04T07:00:52.330Z,9.47
2018-12-04T07:03:21.547Z,9.45
2018-12-04T07:05:54.338Z,9.46
2018-12-04T07:08:23.210Z,9.35
2018-12-04T07:10:51.883Z,9.07
2018-12-04T07:13:20.390Z,8.93
2018-12-04T07:15:49.111Z,8.71
2018-12-04T07:18:17.750Z,8.58
2018-12-04T07:20:46.308Z,8.60
2018-12-04T07:23:15.872Z,8.59
2018-12-04T07:25:45.148Z,8.62
2018-12-04T07:28:13.762Z,8.63
2018-12-04T07:30:42.354Z,8.51
2018-12-04T07:33:11.101Z,8.63
2018-12-04T07:35:40.793Z,8.67
2018-12-04T07:38:09.446Z,8.75
2018-12-04T07:40:39.908Z,8.70
2018-12-04T07:43:09.485Z,8.83
2018-12-04T07:45:39.896Z,8.85
2018-12-04T07:48:12.272Z,8.87
2018-12-04T07:50:42.775Z,8.82
2018-12-04T07:53:13.929Z,8.90
2018-12-04T07:55:46.830Z,8.99
2018-12-04T07:58:21.551Z,9.06
2018-12-04T08:00:50.646Z,9.13
2018-12-04T08:03:20.643Z,9.00
2018-12-04T08:05:50.286Z,9.01
2018-12-04T08:08:19.492Z,9.12
2018-12-04T08:10:52.168Z,9.03
2018-12-04T08:13:23.241Z,9.01
2018-12-04T08:15:53.912Z,9.00
2018-12-04T08:18:23.930Z,9.08
2018-12-04T08:23:46.986Z,9.33
2018-12-04T08:26:16.405Z,9.30
2018-12-04T08:28:44.895Z,9.33
2018-12-04T08:31:13.502Z,9.25
2018-12-04T08:33:42.269Z,9.34
2018-12-04T08:36:11.253Z,9.25
2018-12-04T08:38:40.126Z,9.06
2018-12-04T08:41:09.655Z,8.83
2018-12-04T08:43:38.248Z,8.87
2018-12-04T08:46:06.883Z,8.79
2018-12-04T08:48:35.479Z,8.93
2018-12-04T08:51:04.253Z,8.81
2018-12-04T08:53:32.867Z,8.78
2018-12-04T08:56:01.475Z,8.73
2018-12-04T08:58:29.994Z,8.45
2018-12-04T09:00:58.714Z,8.44
2018-12-04T09:03:27.234Z,8.36
2018-12-04T09:05:55.847Z,8.14
2018-12-04T09:08:24.870Z,8.16
2018-12-04T09:10:53.387Z,8.19
2018-12-04T09:13:23.367Z,8.33
2018-12-04T09:15:51.993Z,8.02
2018-12-04T09:18:20.549Z,7.79
2018-12-04T09:20:49.733Z,8.02
2018-12-04T09:23:18.618Z,7.82
2018-12-04T09:25:48.704Z,7.86
2018-12-04T09:28:17.332Z,7.78
2018-12-04T09:30:47.003Z,7.85
2018-12-04T09:33:16.183Z,7.90
2018-12-04T09:35:44.826Z,7.81
2018-12-04T09:38:13.416Z,7.72
2018-12-04T09:40:42.123Z,7.67
2018-12-04T09:43:10.618Z,7.72
2018-12-04T09:45:39.134Z,7.71
2018-12-04T09:48:07.665Z,7.74
2018-12-04T09:50:36.350Z,7.74
2018-12-04T09:53:04.939Z,7.67
2018-12-04T09:55:33.572Z,7.82
2018-12-04T09:58:02.130Z,8.12
2018-12-04T10:00:30.783Z,8.11
2018-12-04T10:02:59.335Z,8.00
2018-12-04T10:05:28.430Z,8.03
2018-12-04T10:07:57.508Z,8.13
2018-12-04T10:10:26.155Z,8.01
2018-12-04T10:12:54.728Z,8.23
2018-12-04T10:15:23.420Z,8.32
2018-12-04T10:17:52.683Z,8.32
2018-12-04T10:20:21.306Z,8.42
2018-12-04T10:22:50.602Z,8.41
2018-12-04T10:25:19.232Z,8.46
2018-12-04T10:27:48.667Z,8.35
2018-12-04T10:30:17.427Z,8.49
2018-12-04T10:32:50.151Z,8.62
2018-12-04T10:35:19.059Z,8.65
2018-12-04T10:37:47.551Z,8.65
2018-12-04T10:40:16.287Z,8.81
2018-12-04T10:42:44.760Z,8.48
2018-12-04T10:45:13.299Z,8.44
2018-12-04T10:47:41.782Z,8.33
2018-12-04T10:50:10.407Z,8.52
2018-12-04T10:52:39.844Z,8.33
2018-12-04T10:55:08.545Z,8.46
2018-12-04T10:57:37.695Z,8.43
2018-12-04T11:00:10.072Z,8.29
2018-12-04T11:02:47.337Z,8.21
2018-12-04T11:05:16.068Z,8.22
2018-12-04T11:07:44.807Z,8.32
2018-12-04T11:10:13.577Z,8.38
2018-12-04T11:12:42.307Z,8.42
2018-12-04T11:15:10.957Z,8.34
2018-12-04T11:17:40.147Z,8.31
2018-12-04T11:20:10.170Z,8.22
2018-12-04T11:22:38.816Z,8.35
2018-12-04T11:25:09.328Z,8.20
2018-12-04T11:27:39.194Z,8.21
2018-12-04T11:30:09.311Z,8.19
2018-12-04T11:32:37.843Z,8.42
2018-12-04T11:35:06.942Z,8.66
2018-12-04T11:37:35.527Z,8.38
2018-12-04T11:40:04.283Z,8.74
2018-12-04T11:42:33.001Z,8.71
2018-12-04T11:45:01.596Z,8.48
2018-12-04T11:47:31.528Z,8.48
2018-12-04T11:50:00.020Z,8.52
2018-12-04T11:52:28.660Z,8.60
2018-12-04T11:54:57.238Z,8.75
2018-12-04T11:57:25.712Z,8.78
2018-12-04T11:59:55.094Z,8.97
2018-12-04T12:02:23.714Z,8.60
2018-12-04T12:04:52.260Z,8.29
2018-12-04T12:07:20.818Z,8.34
2018-12-04T12:09:49.942Z,8.26
2018-12-04T12:12:18.623Z,8.29
2018-12-04T12:14:49.343Z,8.02
2018-12-04T12:17:17.884Z,7.92
2018-12-04T12:19:46.440Z,7.96
2018-12-04T12:22:15.325Z,8.02
2018-12-04T12:24:44.355Z,8.03
2018-12-04T12:27:13.731Z,8.11
2018-12-04T12:29:42.674Z,8.03
2018-12-04T12:32:11.263Z,8.21
2018-12-04T12:34:40.259Z,8.31
2018-12-04T12:37:09.548Z,7.98
2018-12-04T12:39:38.254Z,8.08
2018-12-04T12:42:06.833Z,8.08
2018-12-04T12:44:35.640Z,7.94
2018-12-04T12:47:04.383Z,8.03
2018-12-04T12:49:33.006Z,7.98
2018-12-04T12:52:01.599Z,7.90
2018-12-04T12:54:30.203Z,7.81
2018-12-04T12:56:58.802Z,7.78
2018-12-04T12:59:27.323Z,7.80
2018-12-04T13:01:55.826Z,7.76
2018-12-04T13:04:24.886Z,7.82
2018-12-04T13:06:53.443Z,7.80
2018-12-04T13:09:22.232Z,7.70
2018-12-04T13:11:50.735Z,7.93
2018-12-04T13:14:20.274Z,7.93
2018-12-04T13:16:50.272Z,7.81
2018-12-04T13:19:18.927Z,7.80
2018-12-04T13:21:53.562Z,7.97
2018-12-04T13:24:23.038Z,7.91
2018-12-04T13:26:51.619Z,7.96
2018-12-04T13:29:20.267Z,7.87
2018-12-04T13:31:48.853Z,8.12
2018-12-04T13:34:17.402Z,8.07
2018-12-04T13:36:47.626Z,8.13
2018-12-04T13:39:16.275Z,8.07
2018-12-04T13:41:44.830Z,8.02
2018-12-04T13:44:14.205Z,8.00
2018-12-04T13:46:43.455Z,7.84
2018-12-04T13:49:12.013Z,7.98
2018-12-04T13:51:40.510Z,7.85
2018-12-04T13:54:09.413Z,7.78
2018-12-04T13:56:38.017Z,7.86
2018-12-04T13:59:06.687Z,7.79
2018-12-04T14:01:35.349Z,7.91
2018-12-04T14:04:04.016Z,7.80
2018-12-04T14:06:35.771Z,7.82
2018-12-04T14:09:07.041Z,7.72
2018-12-04T14:11:35.729Z,7.87
2018-12-04T14:14:04.627Z,7.93
2018-12-04T14:16:34.543Z,7.74
2018-12-04T14:19:03.106Z,7.81
2018-12-04T14:21:32.288Z,7.79
2018-12-04T14:24:01.594Z,7.86
2018-12-04T14:26:30.199Z,7.73
2018-12-04T14:28:58.900Z,7.83
2018-12-04T14:31:27.578Z,7.80
2018-12-04T14:33:56.227Z,7.67
2018-12-04T14:36:24.795Z,7.75
2018-12-04T14:38:54.127Z,7.67
2018-12-04T14:41:22.723Z,7.49
2018-12-04T14:43:52.065Z,7.44
2018-12-04T14:46:20.655Z,7.43
2018-12-04T14:48:50.429Z,7.36
2018-12-04T14:51:19.084Z,7.40
2018-12-04T14:53:47.747Z,7.43
2018-12-04T14:56:16.320Z,7.32
2018-12-04T14:58:44.868Z,7.18
2018-12-04T15:01:13.651Z,7.10
2018-12-04T15:03:42.535Z,6.97
2018-12-04T15:06:12.183Z,6.99
2018-12-04T15:08:40.918Z,6.85
2018-12-04T15:11:09.695Z,6.87
2018-12-04T15:13:38.275Z,6.86
2018-12-04T15:16:06.935Z,6.85
2018-12-04T15:18:35.988Z,6.95
2018-12-04T15:21:05.880Z,6.77
2018-12-04T15:23:34.628Z,6.75
2018-12-04T15:26:03.427Z,6.79
2018-12-04T15:28:32.224Z,6.77
2018-12-04T15:31:01.439Z,6.84
2018-12-04T15:33:31.817Z,6.87
2018-12-04T15:36:00.539Z,6.52
2018-12-04T15:38:30.529Z,6.49
2018-12-04T15:40:59.141Z,6.44
2018-12-04T15:43:27.819Z,6.31
2018-12-04T15:45:58.443Z,6.26
2018-12-04T15:48:27.742Z,6.27
2018-12-04T15:50:59.831Z,6.19
2018-12-04T15:53:27.705Z,6.07
2018-12-04T15:55:56.882Z,6.13
2018-12-04T15:58:25.470Z,6.06
2018-12-04T16:00:54.119Z,6.21
2018-12-04T16:03:22.940Z,5.99
2018-12-04T16:05:51.411Z,5.84
2018-12-04T16:08:20.016Z,5.75
2018-12-04T16:10:48.526Z,5.85
2018-12-04T16:13:17.715Z,5.86
2018-12-04T16:15:46.209Z,5.62
2018-12-04T16:18:14.854Z,5.50
2018-12-04T16:20:43.316Z,5.45
2018-12-04T16:23:11.854Z,5.36
2018-12-04T16:25:40.590Z,5.30
2018-12-04T16:28:09.178Z,5.31
2018-12-04T16:30:37.681Z,5.30
2018-12-04T16:33:06.388Z,5.31
2018-12-04T16:35:35.558Z,5.36
2018-12-04T16:38:04.162Z,5.81
2018-12-04T16:40:32.665Z,5.83
2018-12-04T16:43:01.224Z,5.76
2018-12-04T16:45:29.875Z,5.55
2018-12-04T16:47:58.405Z,5.49
2018-12-04T16:50:26.963Z,5.42
2018-12-04T16:52:55.557Z,5.38
2018-12-04T16:55:24.154Z,5.39
2018-12-04T16:57:52.785Z,5.36
2018-12-04T17:00:21.329Z,5.26
2018-12-04T17:02:49.961Z,5.15
2018-12-04T17:05:18.487Z,5.13
2018-12-04T17:07:47.251Z,5.08
2018-12-04T17:10:22.246Z,5.07
2018-12-04T17:12:46.746Z,5.03
2018-12-04T17:15:15.612Z,5.00
2018-12-04T17:17:44.594Z,4.98
2018-12-04T17:20:13.823Z,4.94
2018-12-04T17:22:42.566Z,4.86
2018-12-04T17:25:12.654Z,4.75
2018-12-04T17:27:41.983Z,4.64
2018-12-04T17:30:12.052Z,4.57
2018-12-04T17:32:42.035Z,4.57
2018-12-04T17:35:10.951Z,4.53
2018-12-04T17:37:39.939Z,4.53
2018-12-04T17:40:09.432Z,4.47
2018-12-04T17:42:39.946Z,4.42
2018-12-04T17:45:09.554Z,4.35
2018-12-04T17:47:38.458Z,4.30
2018-12-04T17:50:09.769Z,4.29
2018-12-04T17:52:38.843Z,4.23
2018-12-04T17:55:08.295Z,4.25
2018-12-04T17:57:37.813Z,4.25
2018-12-04T18:00:08.818Z,4.36
2018-12-04T18:02:39.576Z,4.38
2018-12-04T18:05:08.936Z,4.35
2018-12-04T18:07:38.033Z,4.34
2018-12-04T18:10:08.459Z,4.35
2018-12-04T18:12:37.370Z,4.30
2018-12-04T18:15:07.078Z,4.28
2018-12-04T18:17:36.503Z,4.25
2018-12-04T18:20:05.867Z,4.25
2018-12-04T18:22:34.462Z,4.24
2018-12-04T18:25:04.074Z,4.21
2018-12-04T18:27:33.678Z,4.13
2018-12-04T18:30:02.801Z,4.01
2018-12-04T18:32:33.189Z,3.88
2018-12-04T18:35:01.836Z,3.77
2018-12-04T18:37:30.475Z,3.74
2018-12-04T18:40:00.018Z,3.76
2018-12-04T18:42:28.546Z,3.88
2018-12-04T18:44:57.141Z,3.84
2018-12-04T18:47:25.643Z,3.71
2018-12-04T18:49:54.812Z,3.62
2018-12-04T18:52:24.030Z,3.56
2018-12-04T18:54:52.555Z,3.44
2018-12-04T18:57:21.126Z,3.46
2018-12-04T18:59:50.973Z,3.45
2018-12-04T19:02:19.726Z,3.48
2018-12-04T19:04:48.423Z,3.49
2018-12-04T19:07:17.056Z,3.48
2018-12-04T19:09:45.598Z,3.55
2018-12-04T19:12:14.173Z,3.63
2018-12-04T19:14:43.268Z,3.62
2018-12-04T19:17:11.926Z,3.60
2018-12-04T19:19:40.665Z,3.61
2018-12-04T19:22:09.289Z,3.60
2018-12-04T19:24:38.400Z,3.68
2018-12-04T19:27:07.679Z,3.56
2018-12-04T19:29:36.447Z,3.53
2018-12-04T19:32:05.203Z,3.50
2018-12-04T19:34:33.823Z,3.55
2018-12-04T19:37:02.555Z,3.47
2018-12-04T19:39:31.072Z,3.49
2018-12-04T19:42:00.227Z,3.45
2018-12-04T19:44:28.827Z,3.43
2018-12-04T19:46:57.435Z,3.50
2018-12-04T19:49:25.987Z,3.44
2018-12-04T19:51:55.522Z,3.19
2018-12-04T19:54:24.323Z,3.25
2018-12-04T19:56:52.974Z,3.25
2018-12-04T19:59:21.560Z,3.23
2018-12-04T20:01:50.128Z,3.17
2018-12-04T20:04:18.847Z,3.27
2018-12-04T20:06:48.346Z,3.31
2018-12-04T20:09:16.851Z,3.27
2018-12-04T20:11:45.453Z,3.26
2018-12-04T20:14:14.564Z,3.28
2018-12-04T20:16:44.314Z,3.22
2018-12-04T20:19:12.956Z,3.09
2018-12-04T20:21:41.647Z,3.01
2018-12-04T20:24:10.276Z,2.96
2018-12-04T20:26:38.879Z,3.00
2018-12-04T20:29:08.386Z,3.01
2018-12-04T20:31:37.112Z,3.03
2018-12-04T20:34:06.590Z,3.06
2018-12-04T20:36:35.703Z,2.92
2018-12-04T20:39:06.631Z,2.98
2018-12-04T20:41:36.832Z,2.99
2018-12-04T20:44:05.960Z,3.04
2018-12-04T20:46:34.620Z,2.97
2018-12-04T20:49:03.928Z,2.93
2018-12-04T20:51:32.842Z,2.80
2018-12-04T20:54:02.587Z,2.82
2018-12-04T20:56:31.493Z,2.83
2018-12-04T20:59:01.400Z,2.80
2018-12-04T21:01:30.582Z,2.82
2018-12-04T21:04:00.166Z,2.64
2018-12-04T21:06:29.116Z,2.56
2018-12-04T21:08:58.016Z,2.51
2018-12-04T21:11:27.792Z,2.50
2018-12-04T21:13:57.858Z,2.50
2018-12-04T21:16:26.905Z,2.51
2018-12-04T21:18:55.755Z,2.49
2018-12-04T21:21:24.587Z,2.46
2018-12-04T21:23:54.371Z,2.39
2018-12-04T21:26:23.617Z,2.41
2018-12-04T21:28:57.958Z,2.37
2018-12-04T21:31:32.974Z,2.36
2018-12-04T21:34:06.664Z,2.30
2018-12-04T21:36:40.516Z,2.27
2018-12-04T21:39:14.821Z,1.97
2018-12-04T21:41:48.624Z,1.89
2018-12-04T21:44:23.719Z,1.86
2018-12-04T21:46:57.551Z,1.96
2018-12-04T21:49:27.075Z,1.89
2018-12-04T21:51:55.623Z,2.09
2018-12-04T21:54:24.162Z,1.99
2018-12-04T21:56:53.778Z,1.86
2018-12-04T21:59:23.478Z,1.79
2018-12-04T22:01:52.696Z,1.73
2018-12-04T22:04:21.242Z,1.60
2018-12-04T22:06:49.785Z,1.67
2018-12-04T22:09:18.688Z,1.68
2018-12-04T22:11:47.321Z,1.51
2018-12-04T22:14:15.965Z,1.53
2018-12-04T22:16:44.643Z,1.59
2018-12-04T22:19:14.160Z,1.52
2018-12-04T22:21:42.679Z,1.56
2018-12-04T22:24:11.327Z,1.57
2018-12-04T22:26:39.900Z,1.48
2018-12-04T22:29:08.402Z,1.51
2018-12-04T22:31:37.006Z,1.44
2018-12-04T22:34:05.540Z,1.30
2018-12-04T22:36:34.079Z,1.38
2018-12-04T22:39:03.951Z,1.22
2018-12-04T22:41:33.009Z,1.28
2018-12-04T22:44:01.727Z,1.33
2018-12-04T22:46:30.258Z,1.46
2018-12-04T22:48:59.464Z,1.39
2018-12-04T22:51:28.269Z,1.42
2018-12-04T22:53:56.894Z,1.31
2018-12-04T22:56:25.918Z,1.36
2018-12-04T22:58:55.208Z,1.31
2018-12-04T23:01:38.011Z,1.19
2018-12-04T23:04:07.299Z,1.16
2018-12-04T23:06:35.876Z,1.05
2018-12-04T23:09:08.542Z,1.12
2018-12-04T23:11:38.181Z,1.20
2018-12-04T23:14:07.263Z,1.16
2018-12-04T23:16:36.028Z,0.84
2018-12-04T23:19:05.085Z,1.09
2018-12-04T23:21:33.599Z,1.19
2018-12-04T23:24:03.067Z,1.28
2018-12-04T23:26:31.709Z,1.12
2018-12-04T23:29:00.819Z,1.13
2018-12-04T23:31:29.400Z,1.09
2018-12-04T23:33:58.080Z,0.92
2018-12-04T23:36:26.852Z,0.96
2018-12-04T23:38:56.623Z,0.88
2018-12-04T23:41:25.307Z,0.78
2018-12-04T23:43:53.795Z,0.73
2018-12-04T23:46:22.330Z,0.80
2018-12-04T23:48:50.894Z,0.92
2018-12-04T23:51:19.540Z,0.85
2018-12-04T23:53:48.878Z,0.91
2018-12-04T23:56:17.576Z,0.94
2018-12-04T23:58:46.165Z,1.06
